メインページ
METAR-TAF:

METAR-TAF

空港 :

シント・マールテン, オランダ領アンティル

プリンセス・ジュリアナ国際空港

緯度: 18-03N, 経度: 063-07W, 海抜: 4m

現時点の気象観測

当レポートは36分前の22:00(UTC)に作成
の風 6kt、東/北東から南東の間で変化する
気温 29°C
湿度 79%
気圧 1015 hPa
視程10km以上
高度1900ftの雲は散在している

METAR: TNCM 262200Z 09006KT 070V130 9999 SCT019 29/25 Q1014 A2996 NOSIG

時間: 18:36 (22:36 UTC)

予報

当レポートは5時間16分前の17:20(UTC)に作成
予報は26日の 18時(UTC)から 27日の 18時(UTC)まで有効
南東の風 8kt
視程: 10km
高度1800ftの雲はほとんどない
26日の 2200時(UTC)から
の風 6kt
視程: 10km
高度1800ftの雲は散在している
近辺でにわか雨
27日の 1400時(UTC)から
東/南東の風 13kt
視程: 10km
高度2500ftの雲は散在している
高度5000ftの雲は散在している

TAF: TNCM 261720Z 2618/2718 13008KT P6SM FEW018 FM262200 10006KT P6SM VCSH SCT018 FM271400 12013KT P6SM SCT025 SCT050

4,000以上の空港の気象観測と天気予報(METAR報とTAF報)

利用可能な観測所は地図上に黄色い丸と赤い丸で示す。

丸の上にカーソルを重ねると観測所名を参照できる。

次にクリックすると気象観測と天気予報を参照できる。

マップの切り替え:黒色「×」印の緑ボタンをクリックして拡大、「-」印の緑ボタンをクリックして縮小、緑色の三角印をクリックして隣りの地図に切り替え


METAR-TAF: